sensor_id;sensor_type;location;lat;lon;timestamp;temperature;humidity
12111;DHT22;6119;52.372;8.990;2022-08-01T00:01:49;20.60;99.90
12111;DHT22;6119;52.372;8.990;2022-08-01T00:04:37;20.50;99.90
12111;DHT22;6119;52.372;8.990;2022-08-01T00:07:23;20.40;99.90
12111;DHT22;6119;52.372;8.990;2022-08-01T00:10:12;20.50;99.90
12111;DHT22;6119;52.372;8.990;2022-08-01T00:12:59;20.50;99.90
12111;DHT22;6119;52.372;8.990;2022-08-01T00:15:45;20.50;99.90
12111;DHT22;6119;52.372;8.990;2022-08-01T00:18:39;20.30;99.90
12111;DHT22;6119;52.372;8.990;2022-08-01T00:21:26;20.40;99.90
12111;DHT22;6119;52.372;8.990;2022-08-01T00:24:13;20.40;99.90
12111;DHT22;6119;52.372;8.990;2022-08-01T00:27:02;20.30;99.90
12111;DHT22;6119;52.372;8.990;2022-08-01T00:29:48;20.30;99.90
12111;DHT22;6119;52.372;8.990;2022-08-01T00:32:55;20.20;99.90
12111;DHT22;6119;52.372;8.990;2022-08-01T00:35:41;20.20;99.90
12111;DHT22;6119;52.372;8.990;2022-08-01T00:38:29;20.20;99.90
12111;DHT22;6119;52.372;8.990;2022-08-01T00:41:15;20.20;99.90
12111;DHT22;6119;52.372;8.990;2022-08-01T00:44:03;20.30;99.90
12111;DHT22;6119;52.372;8.990;2022-08-01T00:46:50;20.20;99.90
12111;DHT22;6119;52.372;8.990;2022-08-01T00:49:36;20.20;99.90
12111;DHT22;6119;52.372;8.990;2022-08-01T00:52:23;20.20;99.90
12111;DHT22;6119;52.372;8.990;2022-08-01T00:55:12;20.10;99.90
12111;DHT22;6119;52.372;8.990;2022-08-01T00:58:00;20.20;99.90
12111;DHT22;6119;52.372;8.990;2022-08-01T01:00:51;20.30;99.90
12111;DHT22;6119;52.372;8.990;2022-08-01T01:03:39;20.20;99.90
12111;DHT22;6119;52.372;8.990;2022-08-01T01:06:47;20.30;99.90
12111;DHT22;6119;52.372;8.990;2022-08-01T01:09:41;20.30;99.90
12111;DHT22;6119;52.372;8.990;2022-08-01T01:12:33;20.20;99.90
12111;DHT22;6119;52.372;8.990;2022-08-01T01:15:29;20.10;99.90
12111;DHT22;6119;52.372;8.990;2022-08-01T01:18:22;20.20;99.90
12111;DHT22;6119;52.372;8.990;2022-08-01T01:21:23;20.00;99.90
12111;DHT22;6119;52.372;8.990;2022-08-01T01:24:21;20.10;99.90
12111;DHT22;6119;52.372;8.990;2022-08-01T01:27:29;20.00;99.90
12111;DHT22;6119;52.372;8.990;2022-08-01T01:30:22;19.90;99.90
12111;DHT22;6119;52.372;8.990;2022-08-01T01:33:11;20.00;99.90
12111;DHT22;6119;52.372;8.990;2022-08-01T01:36:01;19.90;99.90
12111;DHT22;6119;52.372;8.990;2022-08-01T01:38:56;19.80;99.90
12111;DHT22;6119;52.372;8.990;2022-08-01T01:41:44;19.70;99.90
12111;DHT22;6119;52.372;8.990;2022-08-01T01:44:31;19.80;99.90
12111;DHT22;6119;52.372;8.990;2022-08-01T01:47:20;19.80;99.90
12111;DHT22;6119;52.372;8.990;2022-08-01T01:50:08;19.90;99.90
12111;DHT22;6119;52.372;8.990;2022-08-01T01:52:57;20.00;99.90
12111;DHT22;6119;52.372;8.990;2022-08-01T01:55:46;20.00;99.90
12111;DHT22;6119;52.372;8.990;2022-08-01T01:58:36;20.10;99.90
12111;DHT22;6119;52.372;8.990;2022-08-01T02:01:27;19.80;99.90
12111;DHT22;6119;52.372;8.990;2022-08-01T02:04:40;19.70;99.90
12111;DHT22;6119;52.372;8.990;2022-08-01T02:07:28;19.60;99.90
12111;DHT22;6119;52.372;8.990;2022-08-01T02:10:16;19.70;99.90
12111;DHT22;6119;52.372;8.990;2022-08-01T02:13:04;19.70;99.90
12111;DHT22;6119;52.372;8.990;2022-08-01T02:15:51;19.70;99.90
12111;DHT22;6119;52.372;8.990;2022-08-01T02:18:44;19.80;99.90
12111;DHT22;6119;52.372;8.990;2022-08-01T02:21:38;19.90;99.90
12111;DHT22;6119;52.372;8.990;2022-08-01T02:24:47;19.80;99.90
12111;DHT22;6119;52.372;8.990;2022-08-01T02:27:41;19.80;99.90
12111;DHT22;6119;52.372;8.990;2022-08-01T02:30:32;19.80;99.90
12111;DHT22;6119;52.372;8.990;2022-08-01T02:33:22;19.80;99.90
12111;DHT22;6119;52.372;8.990;2022-08-01T02:36:11;19.80;99.90
12111;DHT22;6119;52.372;8.990;2022-08-01T02:39:21;19.90;99.90
12111;DHT22;6119;52.372;8.990;2022-08-01T02:42:11;19.70;99.90
12111;DHT22;6119;52.372;8.990;2022-08-01T02:45:00;19.80;99.90
12111;DHT22;6119;52.372;8.990;2022-08-01T02:47:50;19.60;99.90
12111;DHT22;6119;52.372;8.990;2022-08-01T02:50:40;19.70;99.90
12111;DHT22;6119;52.372;8.990;2022-08-01T02:53:32;19.70;99.90
12111;DHT22;6119;52.372;8.990;2022-08-01T02:56:31;19.70;99.90
12111;DHT22;6119;52.372;8.990;2022-08-01T02:59:22;19.70;99.90
12111;DHT22;6119;52.372;8.990;2022-08-01T03:02:12;19.70;99.90
12111;DHT22;6119;52.372;8.990;2022-08-01T03:05:00;19.70;99.90
12111;DHT22;6119;52.372;8.990;2022-08-01T03:07:47;19.70;99.90
12111;DHT22;6119;52.372;8.990;2022-08-01T03:10:36;19.60;99.90
12111;DHT22;6119;52.372;8.990;2022-08-01T03:13:25;19.60;99.90
12111;DHT22;6119;52.372;8.990;2022-08-01T03:16:13;19.60;99.90
12111;DHT22;6119;52.372;8.990;2022-08-01T03:19:02;19.60;99.90
12111;DHT22;6119;52.372;8.990;2022-08-01T03:21:49;19.70;99.90
12111;DHT22;6119;52.372;8.990;2022-08-01T03:24:38;19.60;99.90
12111;DHT22;6119;52.372;8.990;2022-08-01T03:27:26;19.60;99.90
12111;DHT22;6119;52.372;8.990;2022-08-01T03:30:14;19.50;99.90
12111;DHT22;6119;52.372;8.990;2022-08-01T03:33:01;19.60;99.90
12111;DHT22;6119;52.372;8.990;2022-08-01T03:35:50;19.50;99.90
12111;DHT22;6119;52.372;8.990;2022-08-01T03:38:39;19.70;99.90
12111;DHT22;6119;52.372;8.990;2022-08-01T03:41:30;19.60;99.90
12111;DHT22;6119;52.372;8.990;2022-08-01T03:44:24;19.60;99.90
12111;DHT22;6119;52.372;8.990;2022-08-01T03:47:14;19.60;99.90
12111;DHT22;6119;52.372;8.990;2022-08-01T03:50:04;19.50;99.90
12111;DHT22;6119;52.372;8.990;2022-08-01T03:52:58;19.40;99.90
12111;DHT22;6119;52.372;8.990;2022-08-01T03:55:45;19.50;99.90
12111;DHT22;6119;52.372;8.990;2022-08-01T03:58:32;19.60;99.90
12111;DHT22;6119;52.372;8.990;2022-08-01T04:01:20;19.50;99.90
12111;DHT22;6119;52.372;8.990;2022-08-01T04:04:08;19.50;99.90
12111;DHT22;6119;52.372;8.990;2022-08-01T04:06:55;19.50;99.90
12111;DHT22;6119;52.372;8.990;2022-08-01T04:09:42;19.50;99.90
12111;DHT22;6119;52.372;8.990;2022-08-01T04:12:28;19.50;99.90
12111;DHT22;6119;52.372;8.990;2022-08-01T04:15:15;19.60;99.90
12111;DHT22;6119;52.372;8.990;2022-08-01T04:18:01;19.40;99.90
12111;DHT22;6119;52.372;8.990;2022-08-01T04:20:49;19.20;99.90
12111;DHT22;6119;52.372;8.990;2022-08-01T04:23:36;19.40;99.90
12111;DHT22;6119;52.372;8.990;2022-08-01T04:26:24;19.50;99.90
12111;DHT22;6119;52.372;8.990;2022-08-01T04:29:12;19.50;99.90
12111;DHT22;6119;52.372;8.990;2022-08-01T04:32:02;19.60;99.90
12111;DHT22;6119;52.372;8.990;2022-08-01T04:34:50;19.60;99.90
12111;DHT22;6119;52.372;8.990;2022-08-01T04:37:39;19.60;99.90
12111;DHT22;6119;52.372;8.990;2022-08-01T04:40:27;19.50;99.90
12111;DHT22;6119;52.372;8.990;2022-08-01T04:43:14;19.40;99.90
12111;DHT22;6119;52.372;8.990;2022-08-01T04:46:02;19.50;99.90
12111;DHT22;6119;52.372;8.990;2022-08-01T04:48:50;19.50;99.90
12111;DHT22;6119;52.372;8.990;2022-08-01T04:51:48;19.50;99.90
12111;DHT22;6119;52.372;8.990;2022-08-01T04:54:37;19.50;99.90
12111;DHT22;6119;52.372;8.990;2022-08-01T04:57:23;19.50;99.90
12111;DHT22;6119;52.372;8.990;2022-08-01T05:00:11;19.40;99.90
12111;DHT22;6119;52.372;8.990;2022-08-01T05:02:57;19.20;99.90
12111;DHT22;6119;52.372;8.990;2022-08-01T05:05:44;19.40;99.90
12111;DHT22;6119;52.372;8.990;2022-08-01T05:08:30;19.50;99.90
12111;DHT22;6119;52.372;8.990;2022-08-01T05:11:18;19.40;99.90
12111;DHT22;6119;52.372;8.990;2022-08-01T05:14:07;19.50;99.90
12111;DHT22;6119;52.372;8.990;2022-08-01T05:16:53;19.40;99.90
12111;DHT22;6119;52.372;8.990;2022-08-01T05:19:40;19.40;99.90
12111;DHT22;6119;52.372;8.990;2022-08-01T05:22:28;19.30;99.90
12111;DHT22;6119;52.372;8.990;2022-08-01T05:25:14;19.50;99.90
12111;DHT22;6119;52.372;8.990;2022-08-01T05:28:22;19.60;99.90
12111;DHT22;6119;52.372;8.990;2022-08-01T05:31:08;19.50;99.90
12111;DHT22;6119;52.372;8.990;2022-08-01T05:33:55;19.60;99.90
12111;DHT22;6119;52.372;8.990;2022-08-01T05:36:41;19.40;99.90
12111;DHT22;6119;52.372;8.990;2022-08-01T05:39:28;19.30;99.90
12111;DHT22;6119;52.372;8.990;2022-08-01T05:42:15;19.60;99.90
12111;DHT22;6119;52.372;8.990;2022-08-01T05:45:03;19.70;99.90
12111;DHT22;6119;52.372;8.990;2022-08-01T05:47:50;19.50;99.90
12111;DHT22;6119;52.372;8.990;2022-08-01T05:50:37;19.70;99.90
12111;DHT22;6119;52.372;8.990;2022-08-01T05:53:24;19.70;99.90
12111;DHT22;6119;52.372;8.990;2022-08-01T05:56:11;19.70;99.90
12111;DHT22;6119;52.372;8.990;2022-08-01T05:58:57;19.50;99.90
12111;DHT22;6119;52.372;8.990;2022-08-01T06:01:45;19.50;99.90
12111;DHT22;6119;52.372;8.990;2022-08-01T06:04:32;19.50;99.90
12111;DHT22;6119;52.372;8.990;2022-08-01T06:07:18;19.30;99.90
12111;DHT22;6119;52.372;8.990;2022-08-01T06:10:06;19.30;99.90
12111;DHT22;6119;52.372;8.990;2022-08-01T06:12:53;19.40;99.90
12111;DHT22;6119;52.372;8.990;2022-08-01T06:15:39;19.40;99.90
12111;DHT22;6119;52.372;8.990;2022-08-01T06:18:27;19.20;99.90
12111;DHT22;6119;52.372;8.990;2022-08-01T06:21:14;19.10;99.90
12111;DHT22;6119;52.372;8.990;2022-08-01T06:24:00;19.30;99.90
12111;DHT22;6119;52.372;8.990;2022-08-01T06:26:46;19.30;99.90
12111;DHT22;6119;52.372;8.990;2022-08-01T06:29:33;19.40;99.90
12111;DHT22;6119;52.372;8.990;2022-08-01T06:32:20;19.50;99.90
12111;DHT22;6119;52.372;8.990;2022-08-01T06:35:13;19.50;99.90
12111;DHT22;6119;52.372;8.990;2022-08-01T06:37:59;19.60;99.90
12111;DHT22;6119;52.372;8.990;2022-08-01T06:40:46;19.70;99.90
12111;DHT22;6119;52.372;8.990;2022-08-01T06:43:33;19.70;99.90
12111;DHT22;6119;52.372;8.990;2022-08-01T06:46:19;19.70;99.90
12111;DHT22;6119;52.372;8.990;2022-08-01T06:49:05;19.80;99.90
12111;DHT22;6119;52.372;8.990;2022-08-01T06:51:54;19.60;99.90
12111;DHT22;6119;52.372;8.990;2022-08-01T06:54:40;19.70;99.90
12111;DHT22;6119;52.372;8.990;2022-08-01T06:57:27;19.70;99.90
12111;DHT22;6119;52.372;8.990;2022-08-01T07:00:14;19.90;99.90
12111;DHT22;6119;52.372;8.990;2022-08-01T07:03:04;19.90;99.90
12111;DHT22;6119;52.372;8.990;2022-08-01T07:05:50;19.90;99.90
12111;DHT22;6119;52.372;8.990;2022-08-01T07:08:38;19.90;99.90
12111;DHT22;6119;52.372;8.990;2022-08-01T07:11:24;19.90;99.90
12111;DHT22;6119;52.372;8.990;2022-08-01T07:14:11;19.70;99.90
12111;DHT22;6119;52.372;8.990;2022-08-01T07:16:57;19.90;99.90
12111;DHT22;6119;52.372;8.990;2022-08-01T07:19:44;19.90;99.90
12111;DHT22;6119;52.372;8.990;2022-08-01T07:22:31;20.00;99.90
12111;DHT22;6119;52.372;8.990;2022-08-01T07:25:22;19.80;99.90
12111;DHT22;6119;52.372;8.990;2022-08-01T07:28:09;19.90;99.90
12111;DHT22;6119;52.372;8.990;2022-08-01T07:30:56;20.00;99.90
12111;DHT22;6119;52.372;8.990;2022-08-01T07:33:42;20.00;99.90
12111;DHT22;6119;52.372;8.990;2022-08-01T07:36:33;20.20;99.90
12111;DHT22;6119;52.372;8.990;2022-08-01T07:39:20;20.10;99.90
12111;DHT22;6119;52.372;8.990;2022-08-01T07:42:08;20.10;99.90
12111;DHT22;6119;52.372;8.990;2022-08-01T07:44:55;20.00;99.90
12111;DHT22;6119;52.372;8.990;2022-08-01T07:47:42;20.10;99.90
12111;DHT22;6119;52.372;8.990;2022-08-01T07:50:28;20.10;99.90
12111;DHT22;6119;52.372;8.990;2022-08-01T07:53:18;20.10;99.90
12111;DHT22;6119;52.372;8.990;2022-08-01T07:56:05;20.10;99.90
12111;DHT22;6119;52.372;8.990;2022-08-01T07:58:53;19.70;99.90
12111;DHT22;6119;52.372;8.990;2022-08-01T08:01:40;20.10;99.90
12111;DHT22;6119;52.372;8.990;2022-08-01T08:04:27;20.10;99.90
12111;DHT22;6119;52.372;8.990;2022-08-01T08:07:14;20.40;99.90
12111;DHT22;6119;52.372;8.990;2022-08-01T08:10:00;20.60;99.90
12111;DHT22;6119;52.372;8.990;2022-08-01T08:12:47;20.60;99.90
12111;DHT22;6119;52.372;8.990;2022-08-01T08:15:35;20.50;99.90
12111;DHT22;6119;52.372;8.990;2022-08-01T08:18:22;20.50;99.90
12111;DHT22;6119;52.372;8.990;2022-08-01T08:21:09;20.50;99.90
12111;DHT22;6119;52.372;8.990;2022-08-01T08:23:55;20.40;99.90
12111;DHT22;6119;52.372;8.990;2022-08-01T08:27:00;20.60;99.90
12111;DHT22;6119;52.372;8.990;2022-08-01T08:29:47;20.60;99.90
12111;DHT22;6119;52.372;8.990;2022-08-01T08:32:35;20.70;99.90
12111;DHT22;6119;52.372;8.990;2022-08-01T08:35:21;20.40;99.90
12111;DHT22;6119;52.372;8.990;2022-08-01T08:38:28;20.60;99.90
12111;DHT22;6119;52.372;8.990;2022-08-01T08:41:15;20.50;99.90
12111;DHT22;6119;52.372;8.990;2022-08-01T08:44:07;20.40;99.90
12111;DHT22;6119;52.372;8.990;2022-08-01T08:46:55;20.40;99.90
12111;DHT22;6119;52.372;8.990;2022-08-01T08:49:45;20.40;99.90
12111;DHT22;6119;52.372;8.990;2022-08-01T08:52:35;20.40;99.90
12111;DHT22;6119;52.372;8.990;2022-08-01T08:55:24;20.30;99.90
12111;DHT22;6119;52.372;8.990;2022-08-01T08:58:13;20.30;99.90
12111;DHT22;6119;52.372;8.990;2022-08-01T09:01:01;20.30;99.90
12111;DHT22;6119;52.372;8.990;2022-08-01T09:03:48;20.40;99.90
12111;DHT22;6119;52.372;8.990;2022-08-01T09:06:36;20.40;99.90
12111;DHT22;6119;52.372;8.990;2022-08-01T09:09:23;20.40;99.90
12111;DHT22;6119;52.372;8.990;2022-08-01T09:12:10;20.70;99.90
12111;DHT22;6119;52.372;8.990;2022-08-01T09:14:58;20.80;99.90
12111;DHT22;6119;52.372;8.990;2022-08-01T09:17:45;20.90;99.90
12111;DHT22;6119;52.372;8.990;2022-08-01T09:20:31;20.80;99.90
12111;DHT22;6119;52.372;8.990;2022-08-01T09:23:33;20.90;99.90
12111;DHT22;6119;52.372;8.990;2022-08-01T09:26:21;21.00;99.90
12111;DHT22;6119;52.372;8.990;2022-08-01T09:29:18;20.80;99.90
12111;DHT22;6119;52.372;8.990;2022-08-01T09:32:22;20.70;99.90
12111;DHT22;6119;52.372;8.990;2022-08-01T09:35:24;20.70;99.90
12111;DHT22;6119;52.372;8.990;2022-08-01T09:38:17;20.70;99.90
12111;DHT22;6119;52.372;8.990;2022-08-01T09:41:05;20.70;99.90
12111;DHT22;6119;52.372;8.990;2022-08-01T09:43:52;20.70;99.90
12111;DHT22;6119;52.372;8.990;2022-08-01T09:46:49;20.80;99.90
12111;DHT22;6119;52.372;8.990;2022-08-01T09:49:37;21.00;99.90
12111;DHT22;6119;52.372;8.990;2022-08-01T09:52:36;20.90;99.90
12111;DHT22;6119;52.372;8.990;2022-08-01T09:55:25;20.90;99.90
12111;DHT22;6119;52.372;8.990;2022-08-01T09:58:13;21.10;99.90
12111;DHT22;6119;52.372;8.990;2022-08-01T10:01:00;21.20;99.90
12111;DHT22;6119;52.372;8.990;2022-08-01T10:04:04;21.30;99.90
12111;DHT22;6119;52.372;8.990;2022-08-01T10:07:03;21.20;99.90
12111;DHT22;6119;52.372;8.990;2022-08-01T10:09:50;21.30;99.90
12111;DHT22;6119;52.372;8.990;2022-08-01T10:12:40;21.30;99.90
12111;DHT22;6119;52.372;8.990;2022-08-01T10:15:31;21.30;99.90
12111;DHT22;6119;52.372;8.990;2022-08-01T10:18:21;21.40;99.90
12111;DHT22;6119;52.372;8.990;2022-08-01T10:21:11;21.30;99.90
12111;DHT22;6119;52.372;8.990;2022-08-01T10:23:58;21.30;99.90
12111;DHT22;6119;52.372;8.990;2022-08-01T10:26:48;21.30;99.90
12111;DHT22;6119;52.372;8.990;2022-08-01T10:29:37;21.30;99.90
12111;DHT22;6119;52.372;8.990;2022-08-01T10:32:46;21.30;99.90
12111;DHT22;6119;52.372;8.990;2022-08-01T10:35:35;21.30;99.90
12111;DHT22;6119;52.372;8.990;2022-08-01T10:38:32;21.30;99.90
12111;DHT22;6119;52.372;8.990;2022-08-01T10:41:21;21.40;99.90
12111;DHT22;6119;52.372;8.990;2022-08-01T10:44:11;21.40;99.90
12111;DHT22;6119;52.372;8.990;2022-08-01T10:47:02;21.50;99.90
12111;DHT22;6119;52.372;8.990;2022-08-01T10:50:01;21.70;99.90
12111;DHT22;6119;52.372;8.990;2022-08-01T10:53:11;21.70;99.90
12111;DHT22;6119;52.372;8.990;2022-08-01T10:56:07;21.60;99.90
12111;DHT22;6119;52.372;8.990;2022-08-01T10:59:03;21.80;99.90
12111;DHT22;6119;52.372;8.990;2022-08-01T11:01:58;21.90;99.90
12111;DHT22;6119;52.372;8.990;2022-08-01T11:04:57;22.20;99.90
12111;DHT22;6119;52.372;8.990;2022-08-01T11:07:48;22.20;99.90
12111;DHT22;6119;52.372;8.990;2022-08-01T11:10:37;22.20;99.90
12111;DHT22;6119;52.372;8.990;2022-08-01T11:16:45;22.30;99.90
12111;DHT22;6119;52.372;8.990;2022-08-01T11:20:06;22.30;99.90
12111;DHT22;6119;52.372;8.990;2022-08-01T11:23:24;22.60;99.90
12111;DHT22;6119;52.372;8.990;2022-08-01T11:26:16;22.80;99.90
12111;DHT22;6119;52.372;8.990;2022-08-01T11:29:16;23.00;99.90
12111;DHT22;6119;52.372;8.990;2022-08-01T11:32:23;23.00;99.90
12111;DHT22;6119;52.372;8.990;2022-08-01T11:35:12;22.90;99.90
12111;DHT22;6119;52.372;8.990;2022-08-01T11:38:22;22.80;99.90
12111;DHT22;6119;52.372;8.990;2022-08-01T11:41:11;22.40;99.90
12111;DHT22;6119;52.372;8.990;2022-08-01T11:43:59;22.60;99.90
12111;DHT22;6119;52.372;8.990;2022-08-01T11:47:05;23.00;99.90
12111;DHT22;6119;52.372;8.990;2022-08-01T11:49:54;23.00;99.90
12111;DHT22;6119;52.372;8.990;2022-08-01T11:52:44;23.00;99.90
12111;DHT22;6119;52.372;8.990;2022-08-01T11:55:32;22.60;99.90
12111;DHT22;6119;52.372;8.990;2022-08-01T11:58:22;23.00;99.90
12111;DHT22;6119;52.372;8.990;2022-08-01T12:01:15;23.10;99.90
12111;DHT22;6119;52.372;8.990;2022-08-01T12:04:02;23.30;99.90
12111;DHT22;6119;52.372;8.990;2022-08-01T12:06:51;23.10;99.90
12111;DHT22;6119;52.372;8.990;2022-08-01T12:09:39;23.40;99.90
12111;DHT22;6119;52.372;8.990;2022-08-01T12:12:26;23.40;99.90
12111;DHT22;6119;52.372;8.990;2022-08-01T12:15:13;23.10;99.90
12111;DHT22;6119;52.372;8.990;2022-08-01T12:18:02;23.30;99.90
12111;DHT22;6119;52.372;8.990;2022-08-01T12:20:49;23.50;99.90
12111;DHT22;6119;52.372;8.990;2022-08-01T12:23:41;23.30;99.90
12111;DHT22;6119;52.372;8.990;2022-08-01T12:26:40;23.40;99.90
12111;DHT22;6119;52.372;8.990;2022-08-01T12:29:37;23.30;99.90
12111;DHT22;6119;52.372;8.990;2022-08-01T12:32:27;23.30;99.90
12111;DHT22;6119;52.372;8.990;2022-08-01T12:35:22;23.00;99.90
12111;DHT22;6119;52.372;8.990;2022-08-01T12:38:14;22.80;99.90
12111;DHT22;6119;52.372;8.990;2022-08-01T12:41:01;23.00;99.90
12111;DHT22;6119;52.372;8.990;2022-08-01T12:43:50;22.70;99.90
12111;DHT22;6119;52.372;8.990;2022-08-01T12:46:37;23.30;99.90
12111;DHT22;6119;52.372;8.990;2022-08-01T12:49:28;23.50;99.90
12111;DHT22;6119;52.372;8.990;2022-08-01T12:52:16;23.60;99.90
12111;DHT22;6119;52.372;8.990;2022-08-01T12:55:14;23.30;99.90
12111;DHT22;6119;52.372;8.990;2022-08-01T12:58:06;23.70;99.90
12111;DHT22;6119;52.372;8.990;2022-08-01T13:01:04;23.80;99.90
12111;DHT22;6119;52.372;8.990;2022-08-01T13:03:58;23.80;99.90
12111;DHT22;6119;52.372;8.990;2022-08-01T13:06:45;24.00;99.90
12111;DHT22;6119;52.372;8.990;2022-08-01T13:09:32;24.10;99.90
12111;DHT22;6119;52.372;8.990;2022-08-01T13:12:19;23.80;99.90
12111;DHT22;6119;52.372;8.990;2022-08-01T13:15:27;23.80;99.90
12111;DHT22;6119;52.372;8.990;2022-08-01T13:18:25;23.50;99.90
12111;DHT22;6119;52.372;8.990;2022-08-01T13:21:13;23.50;99.90
12111;DHT22;6119;52.372;8.990;2022-08-01T13:24:03;23.70;99.90
12111;DHT22;6119;52.372;8.990;2022-08-01T13:26:52;23.70;99.90
12111;DHT22;6119;52.372;8.990;2022-08-01T13:29:41;23.70;99.90
12111;DHT22;6119;52.372;8.990;2022-08-01T13:32:27;23.30;99.90
12111;DHT22;6119;52.372;8.990;2022-08-01T13:35:20;23.50;99.90
12111;DHT22;6119;52.372;8.990;2022-08-01T13:38:07;23.50;99.90
12111;DHT22;6119;52.372;8.990;2022-08-01T13:40:58;23.00;99.90
12111;DHT22;6119;52.372;8.990;2022-08-01T13:43:44;23.20;99.90
12111;DHT22;6119;52.372;8.990;2022-08-01T13:46:44;23.20;99.90
12111;DHT22;6119;52.372;8.990;2022-08-01T13:49:35;23.30;99.90
12111;DHT22;6119;52.372;8.990;2022-08-01T13:52:26;23.00;99.90
12111;DHT22;6119;52.372;8.990;2022-08-01T13:55:12;23.20;99.90
12111;DHT22;6119;52.372;8.990;2022-08-01T13:57:59;23.30;99.90
12111;DHT22;6119;52.372;8.990;2022-08-01T14:00:46;23.20;99.90
12111;DHT22;6119;52.372;8.990;2022-08-01T14:03:34;23.10;99.90
12111;DHT22;6119;52.372;8.990;2022-08-01T14:06:20;23.00;99.90
12111;DHT22;6119;52.372;8.990;2022-08-01T14:09:08;23.10;99.90
12111;DHT22;6119;52.372;8.990;2022-08-01T14:12:08;22.80;99.90
12111;DHT22;6119;52.372;8.990;2022-08-01T14:14:54;23.10;99.90
12111;DHT22;6119;52.372;8.990;2022-08-01T14:17:41;23.10;99.90
12111;DHT22;6119;52.372;8.990;2022-08-01T14:20:32;23.30;99.90
12111;DHT22;6119;52.372;8.990;2022-08-01T14:23:19;23.30;99.90
12111;DHT22;6119;52.372;8.990;2022-08-01T14:26:08;23.30;99.90
12111;DHT22;6119;52.372;8.990;2022-08-01T14:28:57;23.40;99.90
12111;DHT22;6119;52.372;8.990;2022-08-01T14:31:43;23.40;99.90
12111;DHT22;6119;52.372;8.990;2022-08-01T14:34:29;23.30;99.90
12111;DHT22;6119;52.372;8.990;2022-08-01T14:37:16;23.00;99.90
12111;DHT22;6119;52.372;8.990;2022-08-01T14:40:04;23.20;99.90
12111;DHT22;6119;52.372;8.990;2022-08-01T14:42:55;23.30;99.90
12111;DHT22;6119;52.372;8.990;2022-08-01T14:45:42;23.20;99.90
12111;DHT22;6119;52.372;8.990;2022-08-01T14:48:28;23.20;99.90
12111;DHT22;6119;52.372;8.990;2022-08-01T14:51:15;23.20;99.90
12111;DHT22;6119;52.372;8.990;2022-08-01T14:54:02;23.30;99.90
12111;DHT22;6119;52.372;8.990;2022-08-01T14:56:49;23.30;99.90
12111;DHT22;6119;52.372;8.990;2022-08-01T14:59:39;23.50;99.90
12111;DHT22;6119;52.372;8.990;2022-08-01T15:02:26;23.40;99.90
12111;DHT22;6119;52.372;8.990;2022-08-01T15:05:12;23.60;99.90
12111;DHT22;6119;52.372;8.990;2022-08-01T15:07:58;23.80;99.90
12111;DHT22;6119;52.372;8.990;2022-08-01T15:10:45;24.10;99.90
12111;DHT22;6119;52.372;8.990;2022-08-01T15:13:31;24.20;99.90
12111;DHT22;6119;52.372;8.990;2022-08-01T15:16:19;24.30;99.90
12111;DHT22;6119;52.372;8.990;2022-08-01T15:19:06;24.30;99.90
12111;DHT22;6119;52.372;8.990;2022-08-01T15:21:52;24.20;99.90
12111;DHT22;6119;52.372;8.990;2022-08-01T15:24:39;24.60;99.90
12111;DHT22;6119;52.372;8.990;2022-08-01T15:27:25;24.10;99.90
12111;DHT22;6119;52.372;8.990;2022-08-01T15:30:12;23.60;99.90
12111;DHT22;6119;52.372;8.990;2022-08-01T15:33:00;24.50;99.90
12111;DHT22;6119;52.372;8.990;2022-08-01T15:35:47;24.40;99.90
12111;DHT22;6119;52.372;8.990;2022-08-01T15:38:37;24.30;99.90
12111;DHT22;6119;52.372;8.990;2022-08-01T15:41:24;24.50;99.90
12111;DHT22;6119;52.372;8.990;2022-08-01T15:44:10;24.60;99.90
12111;DHT22;6119;52.372;8.990;2022-08-01T15:46:56;24.00;99.90
12111;DHT22;6119;52.372;8.990;2022-08-01T15:49:44;24.20;99.90
12111;DHT22;6119;52.372;8.990;2022-08-01T15:52:36;24.00;99.90
12111;DHT22;6119;52.372;8.990;2022-08-01T15:55:23;23.50;99.90
12111;DHT22;6119;52.372;8.990;2022-08-01T15:58:10;23.80;99.90
12111;DHT22;6119;52.372;8.990;2022-08-01T16:00:56;24.10;99.90
12111;DHT22;6119;52.372;8.990;2022-08-01T16:03:43;24.30;99.90
12111;DHT22;6119;52.372;8.990;2022-08-01T16:06:31;24.10;99.90
12111;DHT22;6119;52.372;8.990;2022-08-01T16:09:17;24.30;99.90
12111;DHT22;6119;52.372;8.990;2022-08-01T16:12:08;24.40;99.90
12111;DHT22;6119;52.372;8.990;2022-08-01T16:14:55;24.70;99.90
12111;DHT22;6119;52.372;8.990;2022-08-01T16:17:42;24.90;99.90
12111;DHT22;6119;52.372;8.990;2022-08-01T16:20:29;25.00;99.90
12111;DHT22;6119;52.372;8.990;2022-08-01T16:23:17;24.80;99.90
12111;DHT22;6119;52.372;8.990;2022-08-01T16:26:04;24.50;99.90
12111;DHT22;6119;52.372;8.990;2022-08-01T16:29:10;24.50;99.90
12111;DHT22;6119;52.372;8.990;2022-08-01T16:31:57;24.40;99.90
12111;DHT22;6119;52.372;8.990;2022-08-01T16:34:47;24.40;99.90
12111;DHT22;6119;52.372;8.990;2022-08-01T16:37:34;24.20;99.90
12111;DHT22;6119;52.372;8.990;2022-08-01T16:40:22;24.10;99.90
12111;DHT22;6119;52.372;8.990;2022-08-01T16:43:09;24.00;99.90
12111;DHT22;6119;52.372;8.990;2022-08-01T16:45:56;24.00;99.90
12111;DHT22;6119;52.372;8.990;2022-08-01T16:48:42;24.20;99.90
12111;DHT22;6119;52.372;8.990;2022-08-01T16:51:30;24.50;99.90
12111;DHT22;6119;52.372;8.990;2022-08-01T16:54:16;24.30;99.90
12111;DHT22;6119;52.372;8.990;2022-08-01T16:57:11;24.00;99.90
12111;DHT22;6119;52.372;8.990;2022-08-01T16:59:59;24.00;99.90
12111;DHT22;6119;52.372;8.990;2022-08-01T17:02:45;24.30;99.90
12111;DHT22;6119;52.372;8.990;2022-08-01T17:05:32;24.80;99.90
12111;DHT22;6119;52.372;8.990;2022-08-01T17:08:18;24.70;99.90
12111;DHT22;6119;52.372;8.990;2022-08-01T17:11:05;24.30;99.90
12111;DHT22;6119;52.372;8.990;2022-08-01T17:13:53;24.70;99.90
12111;DHT22;6119;52.372;8.990;2022-08-01T17:16:40;25.00;99.90
12111;DHT22;6119;52.372;8.990;2022-08-01T17:19:27;24.80;99.90
12111;DHT22;6119;52.372;8.990;2022-08-01T17:22:17;25.00;99.90
12111;DHT22;6119;52.372;8.990;2022-08-01T17:25:05;25.10;99.90
12111;DHT22;6119;52.372;8.990;2022-08-01T17:28:00;25.20;99.90
12111;DHT22;6119;52.372;8.990;2022-08-01T17:30:48;25.10;99.90
12111;DHT22;6119;52.372;8.990;2022-08-01T17:33:35;25.20;99.90
12111;DHT22;6119;52.372;8.990;2022-08-01T17:36:31;25.40;99.90
12111;DHT22;6119;52.372;8.990;2022-08-01T17:39:18;25.20;99.90
12111;DHT22;6119;52.372;8.990;2022-08-01T17:42:23;24.70;99.90
12111;DHT22;6119;52.372;8.990;2022-08-01T17:45:14;25.00;99.90
12111;DHT22;6119;52.372;8.990;2022-08-01T17:48:14;24.90;99.90
12111;DHT22;6119;52.372;8.990;2022-08-01T17:51:01;24.50;99.90
12111;DHT22;6119;52.372;8.990;2022-08-01T17:53:48;24.30;99.90
12111;DHT22;6119;52.372;8.990;2022-08-01T17:56:42;24.30;99.90
12111;DHT22;6119;52.372;8.990;2022-08-01T17:59:30;24.10;99.90
12111;DHT22;6119;52.372;8.990;2022-08-01T18:02:17;23.90;99.90
12111;DHT22;6119;52.372;8.990;2022-08-01T18:05:05;24.00;99.90
12111;DHT22;6119;52.372;8.990;2022-08-01T18:07:55;24.10;99.90
12111;DHT22;6119;52.372;8.990;2022-08-01T18:10:46;24.00;99.90
12111;DHT22;6119;52.372;8.990;2022-08-01T18:13:32;23.80;99.90